Time;durP1;ratioP1;P1;durP2;ratioP2;P2;SDS_P1;SDS_P2;PMS_P1;PMS_P2;Temp;Humidity;BMP_temperature;BMP_pressure;BME280_temperature;BME280_humidity;BME280_pressure;Samples;Min_cycle;Max_cycle;Signal;HPM_P1;HPM_P2
2022/01/12 00:01:37;;;;;;;;;;;18.70;33.70;;;;;;5112775;27;19932;-51
2022/01/12 00:04:05;;;;;;;;;;;18.80;33.80;;;;;;5108835;27;20014;-46
2022/01/12 00:06:33;;;;;;;;;;;18.70;33.60;;;;;;5130519;27;19938;-49
2022/01/12 00:09:05;;;;;;;;;;;18.80;33.60;;;;;;5105886;28;20298;-50
2022/01/12 00:11:32;;;;;;;;;;;18.80;33.50;;;;;;5121032;27;19927;-48
2022/01/12 00:13:59;;;;;;;;;;;18.80;33.40;;;;;;5132905;27;19923;-47
2022/01/12 00:16:26;;;;;;;;;;;18.70;33.40;;;;;;5131520;27;19966;-48
2022/01/12 00:18:54;;;;;;;;;;;18.80;33.50;;;;;;5121019;27;20101;-53
2022/01/12 00:21:21;;;;;;;;;;;18.70;33.40;;;;;;5131390;27;19938;-50
2022/01/12 00:23:50;;;;;;;;;;;18.80;33.50;;;;;;5112291;27;19924;-48
2022/01/12 00:26:40;;;;;;;;;;;18.80;33.50;;;;;;5131848;27;19931;-47
2022/01/12 00:34:38;;;;;;;;;;;18.80;33.20;;;;;;5112199;27;20597;-53
2022/01/12 00:37:04;;;;;;;;;;;18.80;33.10;;;;;;5114455;27;19950;-49
2022/01/12 00:39:34;;;;;;;;;;;18.70;33.00;;;;;;5107250;27;19969;-52
2022/01/12 00:42:01;;;;;;;;;;;18.70;32.90;;;;;;5109661;27;20440;-48
2022/01/12 00:44:33;;;;;;;;;;;18.70;32.80;;;;;;5120531;27;19919;-50
2022/01/12 00:47:00;;;;;;;;;;;18.70;32.80;;;;;;5113424;27;19923;-50
2022/01/12 00:49:27;;;;;;;;;;;18.70;32.70;;;;;;5113109;27;19931;-51
2022/01/12 00:51:54;;;;;;;;;;;18.70;32.70;;;;;;5111022;27;19970;-48
2022/01/12 00:54:21;;;;;;;;;;;18.70;32.70;;;;;;5108737;27;19927;-45
2022/01/12 00:56:49;;;;;;;;;;;18.70;32.70;;;;;;5130154;27;19935;-51
2022/01/12 00:59:16;;;;;;;;;;;18.70;32.70;;;;;;5094161;27;19928;-47
2022/01/12 01:01:43;;;;;;;;;;;18.70;32.70;;;;;;5114183;27;19948;-52
2022/01/12 01:04:13;;;;;;;;;;;18.70;32.70;;;;;;5112326;27;19963;-48
2022/01/12 01:06:41;;;;;;;;;;;18.70;32.70;;;;;;5113067;27;20372;-53
2022/01/12 01:09:08;;;;;;;;;;;18.70;32.80;;;;;;5111313;27;19923;-52
2022/01/12 01:11:35;;;;;;;;;;;18.70;32.80;;;;;;5111621;27;19928;-50
2022/01/12 01:14:13;;;;;;;;;;;18.70;32.90;;;;;;5109422;27;20015;-50
2022/01/12 01:16:51;;;;;;;;;;;18.70;32.90;;;;;;5096685;27;20540;-47
2022/01/12 01:27:30;;;;;;;;;;;18.70;33.10;;;;;;5129730;27;19938;-46
2022/01/12 01:29:58;;;;;;;;;;;18.70;33.10;;;;;;5112157;27;19954;-51
2022/01/12 01:32:26;;;;;;;;;;;18.70;33.20;;;;;;5109239;27;19931;-51
2022/01/12 01:34:53;;;;;;;;;;;18.70;33.20;;;;;;5107182;27;20378;-47
2022/01/12 01:37:20;;;;;;;;;;;18.70;33.30;;;;;;5112569;27;19945;-47
2022/01/12 01:39:47;;;;;;;;;;;18.70;33.30;;;;;;5112261;27;20634;-50
2022/01/12 01:42:18;;;;;;;;;;;18.70;33.30;;;;;;5113977;27;20376;-48
2022/01/12 01:53:21;;;;;;;;;;;18.70;33.50;;;;;;5103186;28;19930;-48
2022/01/12 01:55:48;;;;;;;;;;;18.60;33.40;;;;;;5102911;27;20326;-47
2022/01/12 01:58:16;;;;;;;;;;;18.60;33.40;;;;;;5117615;27;20023;-51
2022/01/12 02:00:42;;;;;;;;;;;18.60;33.40;;;;;;5107744;27;20062;-47
2022/01/12 02:03:11;;;;;;;;;;;18.70;33.50;;;;;;5107844;27;19931;-51
2022/01/12 02:05:39;;;;;;;;;;;18.60;33.50;;;;;;5110728;27;19931;-47
2022/01/12 02:08:06;;;;;;;;;;;18.60;33.50;;;;;;5129568;27;19924;-47
2022/01/12 02:10:35;;;;;;;;;;;18.60;33.50;;;;;;5121880;27;20069;-48
2022/01/12 02:13:02;;;;;;;;;;;18.60;33.50;;;;;;5125636;27;20296;-53
2022/01/12 02:15:29;;;;;;;;;;;18.60;33.50;;;;;;5119540;27;20010;-48
2022/01/12 02:18:08;;;;;;;;;;;18.60;33.50;;;;;;5112157;27;19962;-48
2022/01/12 02:39:51;;;;;;;;;;;18.60;33.60;;;;;;5107180;28;20083;-51
2022/01/12 02:40:07;;;;;;;;;;;18.60;33.70;;;;;;5128959;27;19924;-50
2022/01/12 02:42:36;;;;;;;;;;;18.60;33.70;;;;;;5107172;28;20640;-47
2022/01/12 02:50:44;;;;;;;;;;;18.60;33.80;;;;;;5109994;28;19924;-50
2022/01/12 02:55:56;;;;;;;;;;;18.60;33.80;;;;;;5113089;28;19923;-47
2022/01/12 02:58:23;;;;;;;;;;;18.60;33.80;;;;;;5107715;28;19932;-53
2022/01/12 03:01:05;;;;;;;;;;;18.60;33.80;;;;;;5106663;28;20685;-50
2022/01/12 03:03:35;;;;;;;;;;;18.60;33.90;;;;;;5097079;28;19928;-46
2022/01/12 03:06:04;;;;;;;;;;;18.60;34.00;;;;;;5115516;28;20014;-45
2022/01/12 03:08:36;;;;;;;;;;;18.60;33.90;;;;;;5109266;28;19923;-47
2022/01/12 03:11:05;;;;;;;;;;;18.60;33.90;;;;;;5110159;28;20280;-50
2022/01/12 03:13:31;;;;;;;;;;;18.60;34.00;;;;;;5110646;28;19928;-44
2022/01/12 03:15:58;;;;;;;;;;;18.60;34.00;;;;;;5111305;28;19928;-46
2022/01/12 03:18:24;;;;;;;;;;;18.60;34.10;;;;;;5109259;28;20407;-45
2022/01/12 03:20:51;;;;;;;;;;;18.60;34.10;;;;;;5101899;28;19924;-46
2022/01/12 03:23:18;;;;;;;;;;;18.60;34.20;;;;;;5109344;28;19928;-47
2022/01/12 03:25:45;;;;;;;;;;;18.60;34.30;;;;;;5111266;28;19976;-49
2022/01/12 03:28:13;;;;;;;;;;;18.60;34.40;;;;;;5108341;28;19927;-51
2022/01/12 03:30:51;;;;;;;;;;;18.60;34.50;;;;;;5107909;28;20299;-48
2022/01/12 03:33:32;;;;;;;;;;;18.70;34.60;;;;;;5108245;28;20026;-47
2022/01/12 03:36:24;;;;;;;;;;;18.70;34.60;;;;;;5108423;27;20002;-51
2022/01/12 03:38:50;;;;;;;;;;;18.70;34.70;;;;;;5101161;28;19931;-51
2022/01/12 03:41:18;;;;;;;;;;;18.80;34.80;;;;;;5107827;28;19924;-45
2022/01/12 03:43:46;;;;;;;;;;;18.80;34.80;;;;;;5111753;28;20265;-50
2022/01/12 03:46:13;;;;;;;;;;;18.80;34.80;;;;;;5109015;27;19924;-52
2022/01/12 03:48:40;;;;;;;;;;;18.80;34.90;;;;;;5108016;28;19924;-46
2022/01/12 03:51:07;;;;;;;;;;;18.90;35.00;;;;;;5113280;28;20030;-51
2022/01/12 03:53:33;;;;;;;;;;;18.90;35.00;;;;;;5143909;27;19928;-49
2022/01/12 03:56:00;;;;;;;;;;;18.90;35.00;;;;;;5114303;27;19991;-45
2022/01/12 03:58:27;;;;;;;;;;;18.90;35.10;;;;;;5111513;28;19924;-50
2022/01/12 04:00:55;;;;;;;;;;;18.90;35.10;;;;;;5113430;27;20096;-47
2022/01/12 04:03:25;;;;;;;;;;;18.90;35.10;;;;;;5112612;28;19924;-47
2022/01/12 04:08:36;;;;;;;;;;;19.00;35.30;;;;;;5112820;28;19924;-46
2022/01/12 04:11:03;;;;;;;;;;;19.00;35.30;;;;;;5110091;28;19977;-46
2022/01/12 04:13:30;;;;;;;;;;;19.00;35.30;;;;;;5099424;28;20284;-46
2022/01/12 04:15:59;;;;;;;;;;;19.00;35.40;;;;;;5116245;27;19963;-49
2022/01/12 04:18:25;;;;;;;;;;;19.00;35.40;;;;;;5108491;28;19927;-48
2022/01/12 04:20:52;;;;;;;;;;;19.00;35.40;;;;;;5114788;27;20372;-52
2022/01/12 04:23:19;;;;;;;;;;;19.00;35.40;;;;;;5125081;27;20410;-48
2022/01/12 04:25:46;;;;;;;;;;;19.00;35.40;;;;;;5109112;27;19923;-48
2022/01/12 04:28:15;;;;;;;;;;;19.00;35.40;;;;;;5109117;28;19932;-50
2022/01/12 04:30:42;;;;;;;;;;;19.10;35.60;;;;;;5109211;28;19930;-46
2022/01/12 04:33:10;;;;;;;;;;;19.10;35.70;;;;;;5109681;28;20016;-48
2022/01/12 04:35:44;;;;;;;;;;;19.10;35.70;;;;;;5110636;28;20332;-50
2022/01/12 04:38:11;;;;;;;;;;;19.10;35.70;;;;;;5110751;28;19973;-45
2022/01/12 04:40:38;;;;;;;;;;;19.10;35.70;;;;;;5106570;28;20018;-47
2022/01/12 04:43:06;;;;;;;;;;;19.10;35.70;;;;;;5111556;27;19958;-47
2022/01/12 04:45:39;;;;;;;;;;;19.10;35.70;;;;;;5096900;28;19934;-48
2022/01/12 04:48:31;;;;;;;;;;;19.10;35.80;;;;;;5103325;28;19923;-52
2022/01/12 04:50:58;;;;;;;;;;;19.10;35.80;;;;;;5109722;28;19931;-48
2022/01/12 04:53:24;;;;;;;;;;;19.10;35.90;;;;;;5104431;28;20351;-53
2022/01/12 04:55:51;;;;;;;;;;;19.10;35.80;;;;;;5110745;28;20221;-53
2022/01/12 04:58:18;;;;;;;;;;;19.10;35.90;;;;;;5104307;27;19932;-44
2022/01/12 05:00:45;;;;;;;;;;;19.10;35.90;;;;;;5110546;28;19930;-48
2022/01/12 05:09:06;;;;;;;;;;;19.20;36.10;;;;;;5137570;27;19928;-49
2022/01/12 05:14:18;;;;;;;;;;;19.20;36.10;;;;;;5104844;28;19927;-46
2022/01/12 05:16:45;;;;;;;;;;;19.20;36.10;;;;;;5109381;28;19954;-48
2022/01/12 05:19:11;;;;;;;;;;;19.20;36.10;;;;;;5110257;28;19955;-46
2022/01/12 05:21:40;;;;;;;;;;;19.20;36.10;;;;;;5100815;28;20011;-46
2022/01/12 05:24:07;;;;;;;;;;;19.20;36.10;;;;;;5107131;28;19923;-52
2022/01/12 05:26:34;;;;;;;;;;;19.20;36.20;;;;;;5107175;28;20390;-47
2022/01/12 05:29:01;;;;;;;;;;;19.20;36.20;;;;;;5109248;28;19928;-45
2022/01/12 05:31:28;;;;;;;;;;;19.20;36.20;;;;;;5109868;28;20018;-47
2022/01/12 05:33:58;;;;;;;;;;;19.20;36.20;;;;;;5103319;28;19923;-47
2022/01/12 05:36:25;;;;;;;;;;;19.20;36.20;;;;;;5104989;28;20365;-51
2022/01/12 05:38:53;;;;;;;;;;;19.20;36.30;;;;;;5109054;27;20389;-45
2022/01/12 05:41:20;;;;;;;;;;;19.20;36.30;;;;;;5108982;28;19981;-49
2022/01/12 05:43:47;;;;;;;;;;;19.20;36.30;;;;;;5108986;28;19930;-48
2022/01/12 05:46:15;;;;;;;;;;;19.20;36.30;;;;;;5107064;28;20007;-47
2022/01/12 05:51:27;;;;;;;;;;;19.20;36.40;;;;;;5108675;28;20069;-54
2022/01/12 05:53:55;;;;;;;;;;;19.20;36.40;;;;;;5103799;28;19928;-48
2022/01/12 05:56:21;;;;;;;;;;;19.20;36.40;;;;;;5103642;28;20129;-48
2022/01/12 05:58:49;;;;;;;;;;;19.20;36.40;;;;;;5099969;28;20361;-49
2022/01/12 06:01:16;;;;;;;;;;;19.20;36.40;;;;;;5106125;28;20071;-49
2022/01/12 06:03:43;;;;;;;;;;;19.30;36.50;;;;;;5107498;28;19931;-49
2022/01/12 06:06:10;;;;;;;;;;;19.20;36.40;;;;;;5105315;28;19924;-52
2022/01/12 06:08:37;;;;;;;;;;;19.20;36.50;;;;;;5110653;27;19976;-51
2022/01/12 06:11:06;;;;;;;;;;;19.20;36.50;;;;;;5103911;28;19966;-48
2022/01/12 06:13:33;;;;;;;;;;;19.30;36.50;;;;;;5111823;27;20392;-51
2022/01/12 06:16:00;;;;;;;;;;;19.30;36.60;;;;;;5092221;28;19967;-50
2022/01/12 06:18:27;;;;;;;;;;;19.30;36.60;;;;;;5100208;28;20361;-48
2022/01/12 06:20:54;;;;;;;;;;;19.30;36.60;;;;;;5093293;28;20353;-53
2022/01/12 06:23:21;;;;;;;;;;;19.30;36.60;;;;;;5103802;28;20369;-48
2022/01/12 06:25:47;;;;;;;;;;;19.30;36.60;;;;;;5109581;28;19932;-45
2022/01/12 06:28:35;;;;;;;;;;;19.30;36.60;;;;;;5108541;28;19924;-50
2022/01/12 06:31:11;;;;;;;;;;;19.30;36.60;;;;;;5099554;28;19980;-46
2022/01/12 06:33:38;;;;;;;;;;;19.30;36.60;;;;;;5100826;28;19923;-45
2022/01/12 06:36:06;;;;;;;;;;;19.30;36.60;;;;;;5106654;28;19930;-50
2022/01/12 06:38:32;;;;;;;;;;;19.30;36.70;;;;;;5099233;28;20034;-49
2022/01/12 06:40:59;;;;;;;;;;;19.30;36.70;;;;;;5104650;28;20022;-51
2022/01/12 06:43:28;;;;;;;;;;;19.30;36.70;;;;;;5097090;28;20407;-47
2022/01/12 06:45:55;;;;;;;;;;;19.30;36.70;;;;;;5092262;28;19931;-50
2022/01/12 06:48:22;;;;;;;;;;;19.30;36.70;;;;;;5102191;28;20370;-45
2022/01/12 06:50:49;;;;;;;;;;;19.30;36.70;;;;;;5095598;28;19924;-47
2022/01/12 06:53:16;;;;;;;;;;;19.30;36.70;;;;;;5098222;28;19957;-51
2022/01/12 06:55:43;;;;;;;;;;;19.30;36.80;;;;;;5094081;28;20040;-47
2022/01/12 06:58:10;;;;;;;;;;;19.30;36.80;;;;;;5095149;28;19928;-55
2022/01/12 07:00:38;;;;;;;;;;;19.30;36.80;;;;;;5092924;28;19993;-52
2022/01/12 07:03:05;;;;;;;;;;;19.30;36.80;;;;;;5103779;28;19931;-51
2022/01/12 07:05:32;;;;;;;;;;;19.30;36.80;;;;;;5097453;28;19932;-48
2022/01/12 07:07:59;;;;;;;;;;;19.30;36.80;;;;;;5101433;27;19930;-51
2022/01/12 07:10:26;;;;;;;;;;;19.30;36.90;;;;;;5095322;27;20002;-48
2022/01/12 07:12:53;;;;;;;;;;;19.30;36.90;;;;;;5105989;28;19991;-53
2022/01/12 07:15:19;;;;;;;;;;;19.40;37.00;;;;;;5104156;28;19979;-48
2022/01/12 07:17:48;;;;;;;;;;;19.30;36.90;;;;;;5101948;28;19971;-53
2022/01/12 07:20:15;;;;;;;;;;;19.30;36.90;;;;;;5101696;28;19932;-52
2022/01/12 07:22:42;;;;;;;;;;;19.30;36.90;;;;;;5101491;28;19932;-49
2022/01/12 07:25:09;;;;;;;;;;;19.30;36.90;;;;;;5100255;28;20373;-49
2022/01/12 07:27:36;;;;;;;;;;;19.40;37.00;;;;;;5097623;28;19923;-58
2022/01/12 07:30:03;;;;;;;;;;;19.30;36.90;;;;;;5112633;28;19928;-53
2022/01/12 07:32:30;;;;;;;;;;;19.40;37.00;;;;;;5111562;28;20015;-58
2022/01/12 07:34:58;;;;;;;;;;;19.40;36.90;;;;;;5115419;28;19955;-59
2022/01/12 07:37:25;;;;;;;;;;;19.30;36.60;;;;;;5108596;28;19935;-58
2022/01/12 07:39:52;;;;;;;;;;;19.30;36.40;;;;;;5156246;27;19924;-56
2022/01/12 07:42:19;;;;;;;;;;;19.30;36.30;;;;;;5115253;28;19931;-52
2022/01/12 07:44:45;;;;;;;;;;;19.30;36.10;;;;;;5122089;27;20050;-55
2022/01/12 07:47:12;;;;;;;;;;;19.30;36.00;;;;;;5119204;27;19950;-57
2022/01/12 07:49:42;;;;;;;;;;;19.30;36.00;;;;;;5115961;27;19927;-55
2022/01/12 07:52:10;;;;;;;;;;;19.30;36.00;;;;;;5113124;27;19969;-59
2022/01/12 07:54:37;;;;;;;;;;;19.20;36.00;;;;;;5130654;27;19920;-59
2022/01/12 07:57:06;;;;;;;;;;;19.20;36.00;;;;;;5118509;27;20440;-54
2022/01/12 07:59:33;;;;;;;;;;;19.20;36.00;;;;;;5134114;27;20168;-55
2022/01/12 08:02:00;;;;;;;;;;;19.20;36.00;;;;;;5121054;27;19974;-46
2022/01/12 08:04:26;;;;;;;;;;;19.20;36.00;;;;;;5099688;27;20172;-49
2022/01/12 08:06:53;;;;;;;;;;;19.20;36.10;;;;;;5107575;27;20289;-44
2022/01/12 08:09:21;;;;;;;;;;;19.20;36.30;;;;;;5112573;27;19935;-47
2022/01/12 08:11:48;;;;;;;;;;;19.20;36.40;;;;;;5104692;27;19951;-51
2022/01/12 08:14:15;;;;;;;;;;;19.20;36.50;;;;;;5093774;28;19928;-50
2022/01/12 08:16:42;;;;;;;;;;;19.20;36.50;;;;;;5084988;27;20018;-48
2022/01/12 08:19:09;;;;;;;;;;;19.20;36.60;;;;;;5098971;27;19959;-48
2022/01/12 08:21:35;;;;;;;;;;;19.20;36.60;;;;;;5095971;27;19924;-48
2022/01/12 08:24:02;;;;;;;;;;;19.20;36.70;;;;;;5099454;27;20014;-47
2022/01/12 08:26:31;;;;;;;;;;;19.20;36.70;;;;;;5106341;27;19968;-47
2022/01/12 08:28:57;;;;;;;;;;;19.20;36.70;;;;;;5106623;27;20344;-50
2022/01/12 08:31:24;;;;;;;;;;;19.30;36.80;;;;;;5093554;27;19931;-51
2022/01/12 08:33:51;;;;;;;;;;;19.30;36.80;;;;;;5095206;27;19964;-56
2022/01/12 08:36:18;;;;;;;;;;;19.30;36.90;;;;;;5095599;27;20965;-53
2022/01/12 08:38:45;;;;;;;;;;;19.30;36.90;;;;;;5097349;28;19928;-51
2022/01/12 08:41:12;;;;;;;;;;;19.30;36.90;;;;;;5109781;27;20471;-48
2022/01/12 08:43:40;;;;;;;;;;;19.30;37.00;;;;;;5132896;27;19980;-50
2022/01/12 08:46:09;;;;;;;;;;;19.30;37.00;;;;;;5099656;27;20018;-53
2022/01/12 08:48:35;;;;;;;;;;;19.30;37.00;;;;;;5099792;27;20434;-50
2022/01/12 08:51:02;;;;;;;;;;;19.30;37.00;;;;;;5114368;27;19932;-49
2022/01/12 08:53:29;;;;;;;;;;;19.30;37.00;;;;;;5094515;27;20001;-51
2022/01/12 08:55:56;;;;;;;;;;;19.40;37.10;;;;;;5097301;27;20292;-52
2022/01/12 08:58:23;;;;;;;;;;;19.40;37.20;;;;;;5098953;27;19927;-46
2022/01/12 09:00:51;;;;;;;;;;;19.40;37.20;;;;;;5120443;27;19927;-47
2022/01/12 09:03:17;;;;;;;;;;;19.40;37.30;;;;;;5126125;27;19930;-47
2022/01/12 09:05:44;;;;;;;;;;;19.40;37.30;;;;;;5099522;27;20000;-49
2022/01/12 09:08:11;;;;;;;;;;;19.40;37.30;;;;;;5096912;27;19927;-52
2022/01/12 09:10:40;;;;;;;;;;;19.40;37.30;;;;;;5098555;27;19928;-49
2022/01/12 09:13:07;;;;;;;;;;;19.40;37.30;;;;;;5098064;27;19960;-48
2022/01/12 09:15:34;;;;;;;;;;;19.50;37.40;;;;;;5095029;27;19928;-52
2022/01/12 09:18:03;;;;;;;;;;;19.50;37.40;;;;;;5098134;27;19951;-50
2022/01/12 09:20:29;;;;;;;;;;;19.50;37.40;;;;;;5118487;27;20658;-49
2022/01/12 09:22:56;;;;;;;;;;;19.50;37.40;;;;;;5114144;27;19924;-54
2022/01/12 09:25:23;;;;;;;;;;;19.50;37.50;;;;;;5107846;27;20476;-47
2022/01/12 09:27:50;;;;;;;;;;;19.50;38.10;;;;;;5091681;27;19975;-48
2022/01/12 09:30:18;;;;;;;;;;;19.50;37.50;;;;;;5115298;27;20576;-51
2022/01/12 09:32:45;;;;;;;;;;;19.50;37.50;;;;;;5119893;27;19923;-49
2022/01/12 09:35:14;;;;;;;;;;;19.50;37.50;;;;;;5101295;27;19923;-50
2022/01/12 09:37:40;;;;;;;;;;;19.50;37.50;;;;;;5092778;27;20030;-50
2022/01/12 09:40:08;;;;;;;;;;;19.60;37.70;;;;;;5111174;27;19992;-53
2022/01/12 09:42:35;;;;;;;;;;;19.60;37.70;;;;;;5120671;27;20272;-50
2022/01/12 09:45:02;;;;;;;;;;;19.60;37.70;;;;;;5102454;27;19923;-51
2022/01/12 09:47:29;;;;;;;;;;;19.60;37.70;;;;;;5113133;27;20284;-50
2022/01/12 09:49:56;;;;;;;;;;;19.60;37.70;;;;;;5098667;27;19923;-51
2022/01/12 09:52:24;;;;;;;;;;;19.60;37.70;;;;;;5104064;27;20230;-50
2022/01/12 09:54:51;;;;;;;;;;;19.60;37.80;;;;;;5115553;27;19959;-46
2022/01/12 09:57:18;;;;;;;;;;;19.60;37.80;;;;;;5120927;27;19924;-48
2022/01/12 09:59:45;;;;;;;;;;;19.60;37.80;;;;;;5088631;27;19963;-47
2022/01/12 10:02:16;;;;;;;;;;;19.60;37.90;;;;;;5101969;27;19924;-50
2022/01/12 10:04:43;;;;;;;;;;;19.60;37.90;;;;;;5112411;27;19931;-50
2022/01/12 10:07:11;;;;;;;;;;;19.60;37.90;;;;;;5097907;27;19969;-49
2022/01/12 10:09:40;;;;;;;;;;;19.60;37.80;;;;;;5103708;28;19965;-52
2022/01/12 10:12:11;;;;;;;;;;;19.60;37.90;;;;;;5094327;27;20472;-48
2022/01/12 10:14:38;;;;;;;;;;;19.70;37.90;;;;;;5098947;28;19938;-51
2022/01/12 10:17:05;;;;;;;;;;;19.70;37.90;;;;;;5093505;27;19927;-49
2022/01/12 10:19:32;;;;;;;;;;;19.70;38.00;;;;;;5093184;28;20276;-46
2022/01/12 10:21:59;;;;;;;;;;;19.70;38.00;;;;;;5114736;27;20519;-54
2022/01/12 10:24:26;;;;;;;;;;;19.70;38.00;;;;;;5105891;28;19976;-48
2022/01/12 10:26:55;;;;;;;;;;;19.70;38.00;;;;;;5093236;28;19973;-52
2022/01/12 10:29:22;;;;;;;;;;;19.70;38.00;;;;;;5099918;28;19985;-47
2022/01/12 10:31:51;;;;;;;;;;;19.70;38.10;;;;;;5117247;28;19927;-48
2022/01/12 10:34:18;;;;;;;;;;;19.70;38.10;;;;;;5109807;28;19924;-48
2022/01/12 10:36:45;;;;;;;;;;;19.70;38.10;;;;;;5114601;28;19969;-47
2022/01/12 10:39:12;;;;;;;;;;;19.70;38.20;;;;;;5099281;28;19927;-52
2022/01/12 10:41:41;;;;;;;;;;;19.70;38.20;;;;;;5111293;28;20019;-53
2022/01/12 10:44:10;;;;;;;;;;;19.70;38.20;;;;;;5126337;27;19973;-49
2022/01/12 10:46:37;;;;;;;;;;;19.70;38.20;;;;;;5101752;27;19991;-46
2022/01/12 10:49:04;;;;;;;;;;;19.70;38.20;;;;;;5098235;27;19927;-52
2022/01/12 10:51:31;;;;;;;;;;;19.70;38.20;;;;;;5114902;27;19999;-50
2022/01/12 10:54:00;;;;;;;;;;;19.70;38.30;;;;;;5129478;27;19955;-46
2022/01/12 10:56:26;;;;;;;;;;;19.70;38.20;;;;;;5106065;27;19928;-47
2022/01/12 10:58:54;;;;;;;;;;;19.70;38.30;;;;;;5095889;27;19924;-49
2022/01/12 11:01:22;;;;;;;;;;;19.70;38.30;;;;;;5101624;27;20037;-49
2022/01/12 11:03:50;;;;;;;;;;;19.70;38.30;;;;;;5100923;27;19938;-47
2022/01/12 11:06:17;;;;;;;;;;;19.80;38.40;;;;;;5094159;27;19955;-46
2022/01/12 11:08:47;;;;;;;;;;;19.80;38.40;;;;;;5095862;27;20320;-49
2022/01/12 11:11:14;;;;;;;;;;;19.80;38.40;;;;;;5117645;27;19928;-46
2022/01/12 11:13:41;;;;;;;;;;;19.80;38.40;;;;;;5104309;27;20030;-47
2022/01/12 11:16:08;;;;;;;;;;;19.80;38.40;;;;;;5124610;27;20078;-52
2022/01/12 11:18:36;;;;;;;;;;;19.80;38.50;;;;;;5101351;27;19955;-51
2022/01/12 11:21:05;;;;;;;;;;;19.80;38.40;;;;;;5104385;27;19924;-50
2022/01/12 11:23:33;;;;;;;;;;;19.80;38.40;;;;;;5096338;28;19930;-47
2022/01/12 11:26:01;;;;;;;;;;;19.80;38.50;;;;;;5096438;27;20004;-50
2022/01/12 11:28:28;;;;;;;;;;;19.80;38.50;;;;;;5095142;27;19923;-47
2022/01/12 11:31:01;;;;;;;;;;;19.80;38.50;;;;;;5108222;27;20022;-51
2022/01/12 11:33:46;;;;;;;;;;;19.80;38.50;;;;;;5107628;27;19955;-50
2022/01/12 11:36:16;;;;;;;;;;;19.80;38.50;;;;;;5140941;27;19934;-49
2022/01/12 11:38:47;;;;;;;;;;;19.80;38.50;;;;;;5105083;27;19939;-51
2022/01/12 11:41:15;;;;;;;;;;;19.80;38.50;;;;;;5105664;27;19923;-48
2022/01/12 11:43:42;;;;;;;;;;;19.80;38.60;;;;;;5116439;27;20368;-45
2022/01/12 11:46:09;;;;;;;;;;;19.80;38.50;;;;;;5123383;27;19927;-45
2022/01/12 11:48:37;;;;;;;;;;;19.90;38.70;;;;;;5105125;27;19931;-47
2022/01/12 11:51:04;;;;;;;;;;;19.90;38.70;;;;;;5118960;27;19960;-46
2022/01/12 11:53:32;;;;;;;;;;;19.80;38.60;;;;;;5093895;28;20085;-44
2022/01/12 11:56:10;;;;;;;;;;;19.90;38.70;;;;;;5099745;28;19928;-46
2022/01/12 11:58:39;;;;;;;;;;;19.90;38.70;;;;;;5108736;27;19981;-46
2022/01/12 12:01:14;;;;;;;;;;;19.90;38.70;;;;;;5131422;27;19967;-50
2022/01/12 12:03:41;;;;;;;;;;;19.90;38.70;;;;;;5123154;27;20361;-49
2022/01/12 12:06:15;;;;;;;;;;;19.90;38.70;;;;;;5118582;27;19992;-49
2022/01/12 12:08:56;;;;;;;;;;;19.90;38.80;;;;;;5112762;27;19927;-59
2022/01/12 12:11:25;;;;;;;;;;;19.90;38.70;;;;;;5103949;27;19980;-56
2022/01/12 12:13:52;;;;;;;;;;;19.90;38.80;;;;;;5105177;27;20588;-60
2022/01/12 12:16:19;;;;;;;;;;;19.90;38.70;;;;;;5103143;27;19931;-58
2022/01/12 12:18:49;;;;;;;;;;;19.90;38.70;;;;;;5107747;27;19928;-59
2022/01/12 12:21:17;;;;;;;;;;;19.90;38.60;;;;;;5126610;27;20322;-60
2022/01/12 12:23:43;;;;;;;;;;;19.90;38.60;;;;;;5113591;27;19963;-59
2022/01/12 12:26:12;;;;;;;;;;;19.80;38.50;;;;;;5150003;27;19962;-59
2022/01/12 12:28:43;;;;;;;;;;;19.90;38.60;;;;;;5091789;27;20021;-60
2022/01/12 12:31:10;;;;;;;;;;;19.90;38.60;;;;;;5111492;27;19938;-59
2022/01/12 12:33:38;;;;;;;;;;;19.80;38.50;;;;;;5112745;27;20013;-55
2022/01/12 12:36:06;;;;;;;;;;;19.80;38.50;;;;;;5116543;28;19935;-58
2022/01/12 12:38:33;;;;;;;;;;;19.80;38.50;;;;;;5114469;27;19928;-59
2022/01/12 12:41:00;;;;;;;;;;;19.80;38.50;;;;;;5145223;27;19949;-57
2022/01/12 12:43:34;;;;;;;;;;;19.80;38.50;;;;;;5108418;27;19939;-58
2022/01/12 12:46:02;;;;;;;;;;;19.80;38.50;;;;;;5110085;27;19931;-58
2022/01/12 12:48:29;;;;;;;;;;;19.80;38.40;;;;;;5111745;27;19931;-59
2022/01/12 12:50:58;;;;;;;;;;;19.80;38.50;;;;;;5113045;27;20381;-58
2022/01/12 12:53:27;;;;;;;;;;;19.80;38.50;;;;;;5118607;27;19965;-59
2022/01/12 12:55:54;;;;;;;;;;;19.80;38.50;;;;;;5150082;27;19971;-57
2022/01/12 12:58:21;;;;;;;;;;;19.80;38.50;;;;;;5123472;27;19927;-61
2022/01/12 13:00:49;;;;;;;;;;;19.80;38.50;;;;;;5145120;27;19927;-59
2022/01/12 13:03:16;;;;;;;;;;;19.80;38.50;;;;;;5126431;27;19923;-60
2022/01/12 13:05:43;;;;;;;;;;;19.70;38.30;;;;;;5119790;27;19927;-60
2022/01/12 13:08:10;;;;;;;;;;;19.70;38.40;;;;;;5097266;28;19923;-59
2022/01/12 13:10:38;;;;;;;;;;;;;;;;;;5144762;27;19923;-58
2022/01/12 13:13:07;;;;;;;;;;;19.60;38.00;;;;;;5110970;27;19924;-55
2022/01/12 13:15:34;;;;;;;;;;;19.60;38.70;;;;;;5124515;27;19924;-58
2022/01/12 13:18:04;;;;;;;;;;;19.60;38.70;;;;;;5109317;27;19931;-58
2022/01/12 13:23:16;;;;;;;;;;;19.60;39.00;;;;;;5124913;27;19999;-58
2022/01/12 13:25:43;;;;;;;;;;;19.70;39.30;;;;;;5113468;27;19972;-56
2022/01/12 13:28:10;;;;;;;;;;;19.70;39.40;;;;;;5126789;27;19990;-59
2022/01/12 13:30:46;;;;;;;;;;;19.60;39.50;;;;;;5106860;27;19942;-59
2022/01/12 13:33:14;;;;;;;;;;;19.60;39.70;;;;;;5109811;27;19923;-58
2022/01/12 13:35:42;;;;;;;;;;;19.70;39.90;;;;;;5132070;27;19939;-58
2022/01/12 13:38:10;;;;;;;;;;;19.70;40.30;;;;;;5118723;27;19924;-59
2022/01/12 13:40:37;;;;;;;;;;;19.70;40.60;;;;;;5131980;27;20041;-59
2022/01/12 13:43:04;;;;;;;;;;;19.60;41.00;;;;;;5135728;27;19938;-60
2022/01/12 13:45:37;;;;;;;;;;;19.60;41.30;;;;;;5114765;27;19927;-57
2022/01/12 13:48:13;;;;;;;;;;;19.60;41.90;;;;;;5111463;27;19934;-59
2022/01/12 13:50:43;;;;;;;;;;;19.60;42.30;;;;;;5109767;27;19927;-60
2022/01/12 13:53:10;;;;;;;;;;;19.60;42.80;;;;;;5140055;27;19955;-57
2022/01/12 13:55:37;;;;;;;;;;;19.60;43.50;;;;;;5105460;27;19936;-60
2022/01/12 13:58:06;;;;;;;;;;;19.60;44.00;;;;;;5101588;27;19927;-58
2022/01/12 14:00:33;;;;;;;;;;;19.60;45.10;;;;;;5132524;27;19923;-58
2022/01/12 14:03:00;;;;;;;;;;;19.60;46.60;;;;;;5109443;27;20150;-59
2022/01/12 14:05:38;;;;;;;;;;;19.60;49.90;;;;;;5108299;27;19959;-58
2022/01/12 14:08:13;;;;;;;;;;;19.60;51.10;;;;;;5114100;27;19927;-58
2022/01/12 14:10:43;;;;;;;;;;;19.60;50.90;;;;;;5110133;27;19932;-59
2022/01/12 14:13:11;;;;;;;;;;;19.50;51.60;;;;;;5111257;27;19928;-60
2022/01/12 14:15:39;;;;;;;;;;;19.70;51.50;;;;;;5114928;27;19912;-60
2022/01/12 14:18:10;;;;;;;;;;;19.50;51.30;;;;;;5128677;27;19931;-57
2022/01/12 14:20:38;;;;;;;;;;;19.60;50.90;;;;;;5107563;28;19990;-59
2022/01/12 14:23:07;;;;;;;;;;;19.70;52.00;;;;;;5140882;27;19934;-57
2022/01/12 14:25:41;;;;;;;;;;;19.60;52.30;;;;;;5148436;27;19924;-56
2022/01/12 14:28:09;;;;;;;;;;;19.60;58.20;;;;;;5129788;27;19927;-59
2022/01/12 14:30:36;;;;;;;;;;;19.50;56.90;;;;;;5128031;28;19927;-61
2022/01/12 14:33:03;;;;;;;;;;;19.50;49.20;;;;;;5110870;28;20018;-60
2022/01/12 14:35:30;;;;;;;;;;;19.50;47.70;;;;;;5110302;28;19952;-61
2022/01/12 14:37:57;;;;;;;;;;;19.60;47.90;;;;;;5104918;28;19939;-58
2022/01/12 14:40:27;;;;;;;;;;;19.50;47.60;;;;;;5111944;28;19934;-60
2022/01/12 14:42:54;;;;;;;;;;;19.50;47.40;;;;;;5110658;28;19931;-52
2022/01/12 14:45:24;;;;;;;;;;;19.60;47.50;;;;;;5109110;28;20439;-60
2022/01/12 14:47:51;;;;;;;;;;;19.50;47.30;;;;;;5098134;28;19963;-48
2022/01/12 14:50:19;;;;;;;;;;;19.50;47.10;;;;;;5102588;28;19927;-49
2022/01/12 14:52:45;;;;;;;;;;;19.70;48.30;;;;;;5099240;28;20404;-53
2022/01/12 14:55:12;;;;;;;;;;;19.60;48.20;;;;;;5101966;28;19955;-54
2022/01/12 14:57:41;;;;;;;;;;;19.60;48.70;;;;;;5117730;27;19934;-47
2022/01/12 15:00:10;;;;;;;;;;;19.50;48.90;;;;;;5133284;27;19934;-47
2022/01/12 15:02:37;;;;;;;;;;;19.60;50.90;;;;;;5096850;28;19927;-49
2022/01/12 15:05:04;;;;;;;;;;;19.60;54.60;;;;;;5097476;28;19935;-49
2022/01/12 15:07:31;;;;;;;;;;;19.60;59.20;;;;;;5093126;28;19932;-47
2022/01/12 15:09:57;;;;;;;;;;;20.20;57.70;;;;;;5095189;28;20772;-52
2022/01/12 15:12:30;;;;;;;;;;;19.60;58.30;;;;;;5107022;28;20463;-48
2022/01/12 15:14:59;;;;;;;;;;;19.60;57.40;;;;;;5097477;28;19931;-48
2022/01/12 15:17:26;;;;;;;;;;;19.80;55.10;;;;;;5100165;28;19934;-45
2022/01/12 15:19:53;;;;;;;;;;;19.60;54.70;;;;;;5101213;28;19931;-50
2022/01/12 15:22:20;;;;;;;;;;;19.60;54.20;;;;;;5133946;27;19932;-45
2022/01/12 15:24:47;;;;;;;;;;;19.70;55.10;;;;;;5120142;28;19934;-49
2022/01/12 15:27:14;;;;;;;;;;;19.60;56.80;;;;;;5103888;28;19924;-47
2022/01/12 15:29:40;;;;;;;;;;;19.60;59.60;;;;;;5128844;27;19935;-53